createdAt,value
2022-08-01T00:02:03.855Z,18.98
2022-08-01T00:04:31.815Z,18.96
2022-08-01T00:06:59.356Z,18.95
2022-08-01T00:09:27.025Z,18.75
2022-08-01T00:11:56.274Z,18.69
2022-08-01T00:14:32.608Z,18.86
2022-08-01T00:17:07.067Z,18.75
2022-08-01T00:19:36.112Z,18.76
2022-08-01T00:22:04.695Z,18.60
2022-08-01T00:24:32.135Z,18.70
2022-08-01T00:26:59.408Z,18.70
2022-08-01T00:30:10.064Z,18.77
2022-08-01T00:32:14.948Z,18.81
2022-08-01T00:34:42.861Z,18.55
2022-08-01T00:37:10.643Z,18.72
2022-08-01T00:39:44.051Z,18.54
2022-08-01T00:42:13.410Z,18.59
2022-08-01T00:44:41.743Z,18.54
2022-08-01T00:47:09.460Z,18.54
2022-08-01T00:49:37.874Z,18.47
2022-08-01T00:52:07.207Z,18.38
2022-08-01T00:54:35.861Z,18.33
2022-08-01T00:57:04.441Z,18.31
2022-08-01T00:59:32.414Z,18.28
2022-08-01T01:01:59.741Z,18.26
2022-08-01T01:04:29.417Z,18.08
2022-08-01T01:07:01.664Z,18.30
2022-08-01T01:09:38.335Z,18.35
2022-08-01T01:12:41.699Z,18.19
2022-08-01T01:15:47.067Z,18.28
2022-08-01T01:18:22.035Z,18.05
2022-08-01T01:24:37.867Z,18.07
2022-08-01T01:27:30.989Z,18.09
2022-08-01T01:30:02.058Z,17.91
2022-08-01T01:32:59.504Z,17.83
2022-08-01T01:35:32.226Z,17.99
2022-08-01T01:38:08.932Z,17.98
2022-08-01T01:40:39.345Z,18.00
2022-08-01T01:43:11.694Z,18.00
2022-08-01T01:45:41.371Z,17.91
2022-08-01T01:48:11.293Z,17.84
2022-08-01T01:50:39.852Z,17.75
2022-08-01T01:53:35.468Z,17.75
2022-08-01T01:56:04.980Z,17.78
2022-08-01T01:58:35.628Z,17.56
2022-08-01T02:01:04.953Z,17.42
2022-08-01T02:04:09.165Z,17.45
2022-08-01T02:06:43.514Z,17.61
2022-08-01T02:09:12.835Z,17.60
2022-08-01T02:12:07.671Z,17.44
2022-08-01T02:14:30.548Z,17.53
2022-08-01T02:16:59.459Z,17.49
2022-08-01T02:19:27.165Z,17.44
2022-08-01T02:22:00.929Z,17.42
2022-08-01T02:24:39.016Z,17.38
2022-08-01T02:27:11.294Z,17.38
2022-08-01T02:29:44.457Z,17.17
2022-08-01T02:32:18.510Z,17.20
2022-08-01T02:34:51.274Z,16.89
2022-08-01T02:37:22.244Z,17.17
2022-08-01T02:39:53.904Z,17.12
2022-08-01T02:42:25.188Z,16.95
2022-08-01T02:44:55.142Z,16.80
2022-08-01T02:47:24.866Z,16.98
2022-08-01T02:49:54.942Z,17.05
2022-08-01T02:52:24.622Z,16.92
2022-08-01T02:54:56.622Z,17.08
2022-08-01T02:57:30.158Z,17.08
2022-08-01T03:00:14.340Z,17.07
2022-08-01T03:03:10.660Z,17.06
2022-08-01T03:05:44.503Z,17.11
2022-08-01T03:08:15.190Z,17.01
2022-08-01T03:10:45.966Z,16.90
2022-08-01T03:13:15.998Z,16.77
2022-08-01T03:15:44.885Z,16.99
2022-08-01T03:18:14.806Z,16.70
2022-08-01T03:20:44.468Z,16.93
2022-08-01T03:23:14.023Z,16.98
2022-08-01T03:25:46.624Z,16.74
2022-08-01T03:28:20.969Z,16.97
2022-08-01T03:30:51.564Z,16.93
2022-08-01T03:33:18.580Z,16.66
2022-08-01T03:35:49.801Z,16.60
2022-08-01T03:38:21.365Z,16.67
2022-08-01T03:41:01.121Z,16.92
2022-08-01T03:43:39.721Z,16.90
2022-08-01T03:46:11.438Z,16.93
2022-08-01T03:48:47.079Z,16.73
2022-08-01T03:51:16.491Z,16.91
2022-08-01T03:53:47.270Z,16.82
2022-08-01T03:56:41.497Z,16.64
2022-08-01T03:59:10.847Z,16.78
2022-08-01T04:01:38.983Z,16.35
2022-08-01T04:04:07.685Z,16.43
2022-08-01T04:06:39.138Z,16.47
2022-08-01T04:09:13.287Z,16.54
2022-08-01T04:11:45.195Z,16.73
2022-08-01T04:14:12.394Z,16.43
2022-08-01T04:16:39.355Z,16.84
2022-08-01T04:19:10.152Z,16.71
2022-08-01T04:21:40.177Z,16.71
2022-08-01T04:24:19.762Z,16.68
2022-08-01T04:26:49.070Z,16.66
2022-08-01T04:29:18.909Z,16.63
2022-08-01T04:31:48.950Z,16.58
2022-08-01T04:34:21.527Z,16.61
2022-08-01T04:37:15.949Z,16.62
2022-08-01T04:39:50.554Z,16.47
2022-08-01T04:42:26.065Z,16.39
2022-08-01T04:45:01.053Z,16.43
2022-08-01T04:47:31.811Z,16.53
2022-08-01T04:50:24.596Z,16.57
2022-08-01T04:52:53.107Z,16.41
2022-08-01T04:55:47.304Z,16.61
2022-08-01T04:58:18.554Z,16.65
2022-08-01T05:00:46.966Z,16.42
2022-08-01T05:03:39.841Z,16.54
2022-08-01T05:06:32.594Z,16.45
2022-08-01T05:09:00.370Z,16.49
2022-08-01T05:11:27.693Z,16.58
2022-08-01T05:13:55.297Z,16.52
2022-08-01T05:16:22.620Z,16.47
2022-08-01T05:19:15.077Z,16.63
2022-08-01T05:21:42.559Z,16.59
2022-08-01T05:24:09.931Z,16.60
2022-08-01T05:26:37.555Z,16.56
2022-08-01T05:29:05.040Z,16.83
2022-08-01T05:31:35.350Z,16.75
2022-08-01T05:34:03.554Z,16.74
2022-08-01T05:36:31.410Z,16.71
2022-08-01T05:38:58.684Z,16.83
2022-08-01T05:41:26.468Z,16.76
2022-08-01T05:43:53.526Z,16.79
2022-08-01T05:46:47.564Z,17.04
2022-08-01T05:49:41.449Z,17.05
2022-08-01T05:52:09.592Z,16.98
2022-08-01T05:55:01.702Z,16.97
2022-08-01T05:57:29.498Z,17.29
2022-08-01T05:59:56.858Z,17.41
2022-08-01T06:02:24.895Z,17.47
2022-08-01T06:04:52.602Z,17.53
2022-08-01T06:07:20.499Z,17.46
2022-08-01T06:09:48.344Z,17.41
2022-08-01T06:12:16.083Z,17.34
2022-08-01T06:14:43.386Z,17.44
2022-08-01T06:17:10.711Z,17.61
2022-08-01T06:19:38.313Z,17.69
2022-08-01T06:22:06.100Z,17.72
2022-08-01T06:24:33.603Z,17.58
2022-08-01T06:27:05.780Z,17.77
2022-08-01T06:29:50.314Z,17.59
2022-08-01T06:32:27.079Z,17.80
2022-08-01T06:34:56.582Z,17.76
2022-08-01T06:37:24.951Z,17.91
2022-08-01T06:39:52.253Z,17.90
2022-08-01T06:42:19.668Z,18.02
2022-08-01T06:44:48.415Z,17.89
2022-08-01T06:47:15.972Z,18.00
2022-08-01T06:49:43.800Z,18.11
2022-08-01T06:52:11.172Z,18.29
2022-08-01T06:55:03.666Z,18.46
2022-08-01T06:57:55.468Z,18.37
2022-08-01T07:00:24.880Z,18.55
2022-08-01T07:02:57.469Z,18.46
2022-08-01T07:05:25.771Z,18.36
2022-08-01T07:08:18.249Z,18.75
2022-08-01T07:10:46.081Z,18.72
2022-08-01T07:13:13.542Z,18.90
2022-08-01T07:15:41.019Z,19.01
2022-08-01T07:18:34.238Z,19.07
2022-08-01T07:21:01.820Z,18.94
2022-08-01T07:23:57.986Z,19.04
2022-08-01T07:26:53.335Z,19.09
2022-08-01T07:29:26.352Z,19.20
2022-08-01T07:31:56.850Z,19.07
2022-08-01T07:34:25.158Z,19.37
2022-08-01T07:37:17.653Z,19.54
2022-08-01T07:40:06.359Z,19.63
2022-08-01T07:42:34.002Z,19.49
2022-08-01T07:45:02.070Z,19.56
2022-08-01T07:47:29.764Z,19.66
2022-08-01T07:52:53.050Z,19.84
2022-08-01T07:55:45.510Z,19.98
2022-08-01T07:58:40.234Z,19.92
2022-08-01T08:01:33.673Z,20.23
2022-08-01T08:06:54.839Z,20.37
2022-08-01T08:09:22.813Z,20.45
2022-08-01T08:11:50.407Z,20.42
2022-08-01T08:14:23.499Z,20.34
2022-08-01T08:17:00.371Z,20.48
2022-08-01T08:19:37.275Z,20.30
2022-08-01T08:22:08.456Z,20.25
2022-08-01T08:24:45.679Z,20.36
2022-08-01T08:27:15.239Z,20.47
2022-08-01T08:29:43.097Z,20.58
2022-08-01T08:32:11.144Z,20.63
2022-08-01T08:34:38.888Z,20.96
2022-08-01T08:37:06.675Z,20.98
2022-08-01T08:39:42.117Z,20.83
2022-08-01T08:42:12.251Z,21.02
2022-08-01T08:44:43.876Z,21.18
2022-08-01T08:47:19.868Z,21.19
2022-08-01T08:49:49.596Z,20.99
2022-08-01T08:52:21.492Z,21.30
2022-08-01T08:55:14.913Z,21.50
2022-08-01T08:58:08.335Z,21.49
2022-08-01T09:00:37.048Z,21.80
2022-08-01T09:03:54.250Z,21.92
2022-08-01T09:06:24.677Z,21.98
2022-08-01T09:08:55.696Z,22.04
2022-08-01T09:11:23.887Z,22.11
2022-08-01T09:14:12.051Z,22.17
2022-08-01T09:16:48.612Z,22.25
2022-08-01T09:19:39.543Z,22.38
2022-08-01T09:22:11.693Z,22.47
2022-08-01T09:24:41.625Z,22.55
2022-08-01T09:27:22.092Z,22.62
2022-08-01T09:30:01.361Z,22.72
2022-08-01T09:32:36.439Z,22.64
2022-08-01T09:35:43.684Z,22.93
2022-08-01T09:38:20.778Z,23.01
2022-08-01T09:41:20.731Z,23.08
2022-08-01T09:43:51.877Z,23.04
2022-08-01T09:46:21.611Z,23.04
2022-08-01T09:49:07.475Z,23.39
2022-08-01T09:51:59.506Z,23.49
2022-08-01T09:54:32.063Z,23.65
2022-08-01T09:57:29.290Z,23.78
2022-08-01T10:00:01.830Z,23.76
2022-08-01T10:02:45.860Z,23.88
2022-08-01T10:05:20.861Z,24.08
2022-08-01T10:08:01.492Z,24.08
2022-08-01T10:10:31.393Z,24.15
2022-08-01T10:13:23.703Z,24.20
2022-08-01T10:15:52.015Z,24.24
2022-08-01T10:18:25.326Z,24.33
2022-08-01T10:20:56.591Z,24.29
2022-08-01T10:23:39.901Z,24.30
2022-08-01T10:26:11.891Z,24.46
2022-08-01T10:29:04.706Z,24.31
2022-08-01T10:31:53.301Z,24.45
2022-08-01T10:34:29.731Z,24.52
2022-08-01T10:37:00.930Z,24.52
2022-08-01T10:39:33.048Z,24.46
2022-08-01T10:42:02.302Z,24.58
2022-08-01T10:44:32.902Z,24.66
2022-08-01T10:47:19.431Z,24.50
2022-08-01T10:50:26.674Z,24.68
2022-08-01T10:53:42.626Z,24.89
2022-08-01T10:56:18.361Z,24.88
2022-08-01T10:58:49.116Z,24.77
2022-08-01T11:01:16.897Z,25.02
2022-08-01T11:04:07.480Z,25.14
2022-08-01T11:06:43.436Z,25.22
2022-08-01T11:09:51.032Z,25.36
2022-08-01T11:12:23.421Z,25.44
2022-08-01T11:15:00.696Z,25.44
2022-08-01T11:17:45.376Z,25.30
2022-08-01T11:26:13.310Z,25.62
2022-08-01T11:29:20.505Z,25.87
2022-08-01T11:31:50.032Z,25.85
2022-08-01T11:34:17.702Z,25.87
2022-08-01T11:37:09.866Z,25.83
2022-08-01T11:39:38.855Z,25.87
2022-08-01T11:42:21.235Z,25.78
2022-08-01T11:47:50.208Z,26.04
2022-08-01T11:50:38.076Z,26.02
2022-08-01T11:56:03.618Z,25.99
2022-08-01T11:58:31.431Z,26.04
2022-08-01T12:00:59.953Z,26.09
2022-08-01T12:03:54.052Z,26.38
2022-08-01T12:06:30.437Z,26.28
2022-08-01T12:09:22.712Z,26.46
2022-08-01T12:11:50.631Z,26.45
2022-08-01T12:14:21.125Z,26.63
2022-08-01T12:16:55.444Z,26.75
2022-08-01T12:19:26.254Z,26.63
2022-08-01T12:22:29.795Z,26.67
2022-08-01T12:25:21.946Z,26.59
2022-08-01T12:27:55.713Z,26.44
2022-08-01T12:30:32.086Z,26.46
2022-08-01T12:32:59.726Z,26.45
2022-08-01T12:35:29.369Z,26.40
2022-08-01T12:38:06.144Z,26.55
2022-08-01T12:40:38.227Z,26.51
2022-08-01T12:43:35.032Z,26.46
2022-08-01T12:46:03.394Z,26.38
2022-08-01T12:48:32.378Z,26.55
2022-08-01T12:51:02.528Z,26.48
2022-08-01T12:53:40.566Z,26.59
2022-08-01T12:56:12.117Z,26.65
2022-08-01T12:58:39.984Z,26.71
2022-08-01T13:01:14.668Z,26.51
2022-08-01T13:03:43.745Z,26.43
2022-08-01T13:06:21.283Z,26.47
2022-08-01T13:08:49.106Z,26.30
2022-08-01T13:11:18.468Z,26.31
2022-08-01T13:13:52.969Z,26.43
2022-08-01T13:16:27.857Z,26.38
2022-08-01T13:19:03.372Z,26.43
2022-08-01T13:21:56.233Z,26.48
2022-08-01T13:24:30.604Z,26.53
2022-08-01T13:27:26.452Z,26.65
2022-08-01T13:29:58.750Z,26.69
2022-08-01T13:32:32.311Z,26.70
2022-08-01T13:37:38.557Z,26.95
2022-08-01T13:43:04.462Z,27.06
2022-08-01T13:45:32.188Z,26.82
2022-08-01T13:48:25.105Z,27.00
2022-08-01T13:51:02.019Z,27.09
2022-08-01T13:54:01.666Z,27.16
2022-08-01T13:56:30.217Z,26.96
2022-08-01T13:58:58.172Z,26.89
2022-08-01T14:01:29.996Z,27.09
2022-08-01T14:04:27.192Z,27.07
2022-08-01T14:06:55.609Z,26.83
2022-08-01T14:09:24.957Z,26.93
2022-08-01T14:12:00.692Z,27.02
2022-08-01T14:14:53.475Z,27.06
2022-08-01T14:17:21.291Z,27.02
2022-08-01T14:19:49.476Z,26.89
2022-08-01T14:22:17.701Z,26.84
2022-08-01T14:25:09.994Z,26.97
2022-08-01T14:27:43.129Z,26.86
2022-08-01T14:30:12.834Z,26.66
2022-08-01T14:32:40.083Z,26.78
2022-08-01T14:35:08.578Z,26.68
2022-08-01T14:37:38.709Z,26.59
2022-08-01T14:40:34.003Z,26.67
2022-08-01T14:43:30.733Z,26.57
2022-08-01T14:46:02.946Z,26.41
2022-08-01T14:48:31.353Z,26.30
2022-08-01T14:51:04.218Z,26.24
2022-08-01T14:53:35.667Z,26.39
2022-08-01T14:56:05.461Z,26.45
2022-08-01T14:58:33.212Z,26.34
2022-08-01T15:01:00.708Z,26.45
2022-08-01T15:03:33.191Z,26.34
2022-08-01T15:06:25.935Z,26.54
2022-08-01T15:08:53.902Z,26.57
2022-08-01T15:11:21.368Z,26.24
2022-08-01T15:14:09.041Z,26.64
2022-08-01T15:16:37.310Z,26.45
2022-08-01T15:19:05.647Z,26.48
2022-08-01T15:21:58.431Z,26.41
2022-08-01T15:24:29.067Z,26.39
2022-08-01T15:27:22.412Z,26.44
2022-08-01T15:29:51.338Z,26.12
2022-08-01T15:32:19.354Z,26.36
2022-08-01T15:34:47.008Z,26.33
2022-08-01T15:37:16.377Z,26.22
2022-08-01T15:39:44.126Z,26.23
2022-08-01T15:42:13.677Z,26.09
2022-08-01T15:44:47.882Z,25.95
2022-08-01T15:47:15.175Z,26.15
2022-08-01T15:49:43.386Z,26.08
2022-08-01T15:52:21.454Z,25.63
2022-08-01T15:54:50.892Z,25.83
2022-08-01T15:57:18.398Z,25.49
2022-08-01T15:59:46.366Z,25.48
2022-08-01T16:02:14.665Z,25.16
2022-08-01T16:05:08.015Z,25.13
2022-08-01T16:07:35.611Z,25.07
2022-08-01T16:10:29.039Z,24.99
2022-08-01T16:13:20.907Z,24.87
2022-08-01T16:16:14.262Z,24.74
2022-08-01T16:18:42.698Z,24.60
2022-08-01T16:22:00.610Z,24.71
2022-08-01T16:24:31.325Z,24.72
2022-08-01T16:27:27.157Z,24.67
2022-08-01T16:29:55.379Z,24.44
2022-08-01T16:32:28.006Z,24.37
2022-08-01T16:35:10.146Z,23.98
2022-08-01T16:37:42.144Z,24.12
2022-08-01T16:40:47.195Z,24.05
2022-08-01T16:43:16.803Z,23.84
2022-08-01T16:45:45.637Z,23.91
2022-08-01T16:48:16.388Z,23.85
2022-08-01T16:50:45.427Z,23.83
2022-08-01T16:53:20.702Z,23.75
2022-08-01T16:55:50.082Z,23.65
2022-08-01T16:58:27.260Z,23.69
2022-08-01T17:02:01.214Z,23.69
2022-08-01T17:04:11.788Z,23.59
2022-08-01T17:06:39.760Z,23.40
2022-08-01T17:09:07.490Z,23.62
2022-08-01T17:11:59.660Z,23.58
2022-08-01T17:14:28.848Z,23.43
2022-08-01T17:17:01.162Z,23.25
2022-08-01T17:19:32.970Z,23.53
2022-08-01T17:22:01.564Z,23.38
2022-08-01T17:24:28.947Z,23.36
2022-08-01T17:27:22.936Z,23.30
2022-08-01T17:29:50.340Z,23.08
2022-08-01T17:32:18.707Z,23.13
2022-08-01T17:34:46.105Z,22.89
2022-08-01T17:37:13.542Z,22.89
2022-08-01T17:39:42.091Z,22.60
2022-08-01T17:42:12.636Z,23.09
2022-08-01T17:44:41.736Z,22.79
2022-08-01T17:47:29.020Z,22.86
2022-08-01T17:50:29.251Z,22.82
2022-08-01T17:53:22.349Z,22.68
2022-08-01T17:55:53.825Z,22.82
2022-08-01T17:58:50.019Z,22.68
2022-08-01T18:01:19.674Z,22.77
2022-08-01T18:03:49.198Z,22.70
2022-08-01T18:06:41.509Z,22.68
2022-08-01T18:09:26.639Z,22.52
2022-08-01T18:12:19.006Z,22.67
2022-08-01T18:14:47.318Z,22.55
2022-08-01T18:17:15.143Z,22.52
2022-08-01T18:19:46.864Z,22.47
2022-08-01T18:22:31.721Z,22.49
2022-08-01T18:25:09.067Z,22.39
2022-08-01T18:28:16.353Z,22.48
2022-08-01T18:30:25.530Z,22.44
2022-08-01T18:32:52.982Z,22.29
2022-08-01T18:35:20.949Z,22.25
2022-08-01T18:37:54.500Z,22.18
2022-08-01T18:40:47.730Z,22.28
2022-08-01T18:45:43.285Z,22.20
2022-08-01T18:48:13.360Z,22.19
2022-08-01T18:50:41.020Z,21.96
2022-08-01T18:53:34.167Z,22.29
2022-08-01T18:56:01.773Z,22.16
2022-08-01T18:58:29.282Z,22.13
2022-08-01T19:00:58.148Z,22.02
2022-08-01T19:03:25.544Z,22.09
2022-08-01T19:05:53.624Z,21.92
2022-08-01T19:08:20.979Z,21.90
2022-08-01T19:10:49.565Z,22.06
2022-08-01T19:13:17.127Z,21.90
2022-08-01T19:15:46.242Z,22.03
2022-08-01T19:18:38.365Z,21.90
2022-08-01T19:24:23.937Z,21.96
2022-08-01T19:26:57.230Z,21.93
2022-08-01T19:29:56.191Z,21.84
2022-08-01T19:32:30.498Z,21.90
2022-08-01T19:35:05.221Z,21.63
2022-08-01T19:37:33.697Z,21.92
2022-08-01T19:40:02.453Z,21.74
2022-08-01T19:42:30.740Z,21.81
2022-08-01T19:44:59.110Z,21.76
2022-08-01T19:47:26.609Z,21.77
2022-08-01T19:53:30.649Z,21.71
2022-08-01T19:56:00.706Z,21.77
2022-08-01T19:58:30.967Z,21.76
2022-08-01T20:00:58.040Z,21.57
2022-08-01T20:03:28.353Z,21.62
2022-08-01T20:05:56.256Z,21.33
2022-08-01T20:08:25.058Z,21.50
2022-08-01T20:10:53.573Z,21.47
2022-08-01T20:13:21.774Z,21.53
2022-08-01T20:15:51.790Z,21.52
2022-08-01T20:18:24.081Z,21.35
2022-08-01T20:20:53.998Z,21.47
2022-08-01T20:23:27.438Z,21.46
2022-08-01T20:26:01.030Z,21.37
2022-08-01T20:28:30.131Z,21.32
2022-08-01T20:31:05.423Z,21.05
2022-08-01T20:33:36.156Z,21.38
2022-08-01T20:36:11.963Z,21.44
2022-08-01T20:38:41.996Z,21.38
2022-08-01T20:41:35.459Z,21.33
2022-08-01T20:44:29.275Z,21.15
2022-08-01T20:46:59.521Z,21.20
2022-08-01T20:49:27.289Z,21.21
2022-08-01T20:51:54.828Z,21.36
2022-08-01T20:54:23.350Z,21.30
2022-08-01T20:57:00.965Z,21.31
2022-08-01T20:59:40.057Z,21.25
2022-08-01T21:03:15.391Z,21.20
2022-08-01T21:05:55.954Z,21.13
2022-08-01T21:08:43.982Z,21.06
2022-08-01T21:11:21.651Z,20.79
2022-08-01T21:13:51.307Z,20.98
2022-08-01T21:16:28.793Z,21.08
2022-08-01T21:19:18.474Z,21.02
2022-08-01T21:22:16.451Z,20.93
2022-08-01T21:24:58.052Z,20.94
2022-08-01T21:27:33.691Z,20.88
2022-08-01T21:30:09.941Z,20.77
2022-08-01T21:32:38.052Z,20.85
2022-08-01T21:35:15.719Z,20.82
2022-08-01T21:38:10.817Z,20.70
2022-08-01T21:40:41.615Z,20.74
2022-08-01T21:43:12.460Z,20.40
2022-08-01T21:45:57.983Z,20.76
2022-08-01T21:48:30.773Z,20.76
2022-08-01T21:51:02.236Z,20.70
2022-08-01T21:53:43.541Z,20.62
2022-08-01T21:56:59.502Z,20.68
2022-08-01T22:00:06.721Z,20.48
2022-08-01T22:02:39.213Z,20.57
2022-08-01T22:05:11.224Z,20.44
2022-08-01T22:08:18.470Z,20.48
2022-08-01T22:10:48.103Z,20.20
2022-08-01T22:13:15.929Z,20.23
2022-08-01T22:15:44.776Z,20.22
2022-08-01T22:18:38.448Z,20.27
2022-08-01T22:24:22.859Z,20.03
2022-08-01T22:26:53.284Z,19.99
2022-08-01T22:29:47.082Z,20.19
2022-08-01T22:32:16.747Z,20.21
2022-08-01T22:34:44.005Z,19.86
2022-08-01T22:37:14.748Z,20.07
2022-08-01T22:39:42.917Z,19.89
2022-08-01T22:42:10.954Z,19.90
2022-08-01T22:45:13.572Z,20.01
2022-08-01T22:47:54.617Z,19.97
2022-08-01T22:50:36.624Z,20.00
2022-08-01T22:53:37.081Z,19.89
2022-08-01T22:56:13.816Z,19.79
2022-08-01T22:58:42.963Z,19.85
2022-08-01T23:01:36.129Z,19.84
2022-08-01T23:04:04.395Z,19.77
2022-08-01T23:09:57.353Z,19.61
2022-08-01T23:12:26.633Z,19.37
2022-08-01T23:14:56.124Z,19.32
2022-08-01T23:17:26.594Z,19.48
2022-08-01T23:19:58.550Z,19.51
2022-08-01T23:22:35.360Z,19.48
2022-08-01T23:25:06.568Z,19.45
2022-08-01T23:27:51.434Z,19.41
2022-08-01T23:30:31.219Z,19.26
2022-08-01T23:33:00.124Z,19.39
2022-08-01T23:35:28.082Z,19.40
2022-08-01T23:38:02.004Z,19.20
2022-08-01T23:40:34.835Z,19.33
2022-08-01T23:43:05.565Z,19.16
2022-08-01T23:46:03.205Z,19.00
2022-08-01T23:48:30.006Z,19.22
2022-08-01T23:50:57.276Z,18.99
2022-08-01T23:53:30.770Z,19.14
2022-08-01T23:56:04.524Z,19.01
2022-08-01T23:58:32.876Z,19.13
